Isis — PBXD — position and weather

sailwx.info

Track history (hours):
 
Tides and Currents Weather Stations Pressure Air Temp Water Temp Dewpoint Dewpoint Depression Visibility Wind Speed Wind Dir Waves Ship Positions

Oceanographic research ship Isis (Netherlands)

Detailed information on ship capabilities available from University of Delaware's Ocean Information Center.

Last reported at 2017-Oct-17 05:59 UTC. Time now 2017-Oct-17 15:04 UTC.
Position N 53°55' E 008°14'.

Length 28 m; beam 8 m.

Type: Other ship. MMSI: 244767000.

Date/timePositionNaut miles runAvg speedWind from/ knotsBaromVisibWave heightAir tempDewpointWater temp
2017-Oct-17 05:59N 53°55' E 008°14'15 6.0
2017-Oct-17 03:33N 54°09' E 008°03'24 5.8
2017-Oct-16 23:31N 54°32' E 007°59'0 5.8
2017-Oct-16 23:27N 54°32' E 007°60'42 7.2
2017-Oct-16 17:32N 55°14' E 008°16'010.1
2017-Oct-16 17:30N 55°14' E 008°16'5 9.9
2017-Oct-16 17:00N 55°19' E 008°17'4 8.2
2017-Oct-16 16:30N 55°23' E 008°13'4 8.5
2017-Oct-16 16:00N 55°26' E 008°09'4 8.2
2017-Oct-16 15:30N 55°29' E 008°05'1 1.7
2017-Oct-16 15:00N 55°30' E 008°04'1 2.0
2017-Oct-16 14:30N 55°29' E 008°05'5 5.2
2017-Oct-16 13:30N 55°26' E 008°12'4 7.8
2017-Oct-16 13:00N 55°23' E 008°17'2 3.4
2017-Oct-16 12:30N 55°22' E 008°18'3 5.4
2017-Oct-16 12:00N 55°19' E 008°19'2 3.6
2017-Oct-16 11:26N 55°17' E 008°19'0 0.3
2017-Oct-16 10:49N 55°17' E 008°19'1 3.1
2017-Oct-16 10:24N 55°16' E 008°19'  
2017-Oct-10 09:15N 53°30' E 005°17'1 3.0
2017-Oct-10 09:00N 53°29' E 005°15'3 5.7
2017-Oct-10 08:28N 53°27' E 005°13'3 5.6
2017-Oct-10 08:00N 53°25' E 005°10'2 3.4
2017-Oct-10 07:31N 53°24' E 005°07'2 3.3
2017-Oct-10 07:00N 53°26' E 005°08'1 1.7
2017-Oct-10 06:30N 53°26' E 005°07'1 1.6
2017-Oct-10 06:00N 53°26' E 005°06'1 2.8
2017-Oct-10 05:30N 53°25' E 005°04'2 3.1
2017-Oct-10 05:00N 53°25' E 005°01'2 3.4
2017-Oct-10 04:30N 53°24' E 004°59'2 3.1
2017-Oct-10 04:01N 53°23' E 004°57'2 3.5
2017-Oct-10 03:30N 53°21' E 004°56'2 3.3
2017-Oct-10 03:00N 53°20' E 004°54'2 3.3
2017-Oct-10 02:30N 53°19' E 004°52'2 3.3
2017-Oct-10 01:47N 53°17' E 004°51'13 3.4
2017-Oct-09 22:01N 53°06' E 004°39'0 4.6
2017-Oct-09 21:56N 53°06' E 004°39'2 4.5
2017-Oct-09 21:28N 53°04' E 004°37'2 4.9
2017-Oct-09 20:59N 53°02' E 004°35'2 5.0
2017-Oct-09 20:29N 52°59' E 004°34'2 5.0
2017-Oct-09 20:00N 52°57' E 004°33'2 4.5
2017-Oct-09 19:30N 52°55' E 004°35'2 4.1
2017-Oct-09 19:01N 52°54' E 004°38'3 5.7
2017-Oct-09 18:30N 52°56' E 004°41'1 3.0
2017-Oct-09 18:00N 52°58' E 004°43'2 2.8
2017-Oct-09 17:28N 52°58' E 004°45'1 3.2
2017-Oct-09 17:00N 52°58' E 004°47'1 1.2
2017-Oct-09 16:30N 52°58' E 004°47'1 1.3
2017-Oct-09 16:01N 52°58' E 004°47'4 8.0
2017-Oct-09 15:30N 52°57' E 004°41'4 8.7
2017-Oct-09 15:00N 52°52' E 004°38'5 9.6
2017-Oct-09 14:30N 52°48' E 004°37'5 9.5
2017-Oct-09 14:00N 52°43' E 004°36'4 9.0
2017-Oct-09 13:31N 52°39' E 004°35'4 8.9
2017-Oct-09 13:00N 52°34' E 004°33'8 8.0
2017-Oct-09 12:00N 52°27' E 004°29'3 5.2
2017-Oct-09 11:30N 52°24' E 004°28'4 8.7
2017-Oct-09 11:00N 52°20' E 004°25'4 8.8
2017-Oct-09 10:31N 52°16' E 004°23'3 6.4
2017-Oct-09 10:00N 52°13' E 004°21'3 5.8
2017-Oct-09 09:30N 52°10' E 004°19'3 6.7
2017-Oct-09 09:00N 52°07' E 004°17'2 3.3
2017-Oct-09 08:30N 52°06' E 004°16'0 0.6
2017-Oct-09 08:00N 52°06' E 004°16'0 0.0
2017-Oct-09 07:27N 52°06' E 004°16'0 0.0
2017-Oct-09 07:00N 52°06' E 004°16'0 0.0
2017-Oct-09 06:27N 52°06' E 004°16'0 0.0
2017-Oct-09 06:00N 52°06' E 004°16'0 0.0
2017-Oct-09 05:27N 52°06' E 004°16'0 0.0
2017-Oct-09 04:57N 52°06' E 004°16'0 0.0
2017-Oct-09 04:27N 52°06' E 004°16'0 0.0
2017-Oct-09 03:57N 52°06' E 004°16'0 0.0
2017-Oct-09 03:30N 52°06' E 004°16'0 0.0
2017-Oct-09 03:00N 52°06' E 004°16'0 0.0
2017-Oct-09 02:30N 52°06' E 004°16'0 0.0
2017-Oct-09 02:00N 52°06' E 004°16'0 0.0
2017-Oct-09 01:30N 52°06' E 004°16'0 0.0
2017-Oct-09 01:00N 52°06' E 004°16'0 0.0
2017-Oct-09 00:30N 52°06' E 004°16'0 0.0
2017-Oct-09 00:00N 52°06' E 004°16'0 0.0
2017-Oct-08 23:30N 52°06' E 004°16'0 0.0
2017-Oct-08 22:57N 52°06' E 004°16'0 0.0
2017-Oct-08 22:27N 52°06' E 004°16'0 0.0
2017-Oct-08 21:54N 52°06' E 004°16'0 0.0
2017-Oct-08 21:27N 52°06' E 004°16'0 0.0
2017-Oct-08 21:00N 52°06' E 004°16'0 0.0
2017-Oct-08 20:30N 52°06' E 004°16'0 0.0
2017-Oct-08 19:57N 52°06' E 004°16'0 0.0
2017-Oct-08 19:21N 52°06' E 004°16'0 0.0
2017-Oct-08 19:00N 52°06' E 004°16'0 0.0
2017-Oct-08 18:30N 52°06' E 004°16'0 0.0
2017-Oct-08 18:00N 52°06' E 004°16'0 0.0
2017-Oct-08 17:30N 52°06' E 004°16'0 0.0
2017-Oct-08 17:00N 52°06' E 004°16'0 0.0
2017-Oct-08 16:06N 52°06' E 004°16'0 0.0
2017-Oct-08 16:00N 52°06' E 004°16'0 0.0
2017-Oct-08 15:30N 52°06' E 004°16'0 0.0
2017-Oct-08 14:57N 52°06' E 004°16'0 0.0
2017-Oct-08 14:30N 52°06' E 004°16'0 0.0
2017-Oct-08 13:57N 52°06' E 004°16'0 0.0
2017-Oct-08 13:30N 52°06' E 004°16'0 0.0
2017-Oct-08 13:00N 52°06' E 004°16'0 0.0
2017-Oct-08 12:27N 52°06' E 004°16'0 0.0
2017-Oct-08 12:00N 52°06' E 004°16'0 0.0
2017-Oct-08 11:30N 52°06' E 004°16'0 0.0
2017-Oct-08 10:45N 52°06' E 004°16'0 0.0
2017-Oct-08 10:27N 52°06' E 004°16'0 0.0
2017-Oct-08 09:54N 52°06' E 004°16'0 0.0
2017-Oct-08 09:24N 52°06' E 004°16'0 0.0
2017-Oct-08 08:51N 52°06' E 004°16'0 0.0
2017-Oct-08 08:30N 52°06' E 004°16'0 0.0
2017-Oct-08 08:00N 52°06' E 004°16'0 0.0
2017-Oct-08 07:30N 52°06' E 004°16'0 0.0
2017-Oct-08 06:57N 52°06' E 004°16'0 0.0
2017-Oct-08 06:27N 52°06' E 004°16'0 0.0
2017-Oct-08 06:00N 52°06' E 004°16'0 0.0
2017-Oct-08 05:27N 52°06' E 004°16'0 0.0
2017-Oct-08 04:57N 52°06' E 004°16'0 0.0
2017-Oct-08 04:30N 52°06' E 004°16'0 0.0
2017-Oct-08 04:00N 52°06' E 004°16'0 0.0
2017-Oct-08 03:30N 52°06' E 004°16'0 0.0
2017-Oct-08 03:00N 52°06' E 004°16'0 0.0
2017-Oct-08 02:24N 52°06' E 004°16'0 0.0
2017-Oct-08 02:00N 52°06' E 004°16'0 0.0
2017-Oct-08 01:30N 52°06' E 004°16'0 0.0
2017-Oct-08 01:00N 52°06' E 004°16'0 0.0
2017-Oct-08 00:30N 52°06' E 004°16'0 0.0
2017-Oct-08 00:00N 52°06' E 004°16'0 0.0
2017-Oct-07 23:30N 52°06' E 004°16'0 0.0
2017-Oct-07 23:00N 52°06' E 004°16'0 0.0
2017-Oct-07 22:27N 52°06' E 004°16'0 0.0
2017-Oct-07 21:57N 52°06' E 004°16'0 0.0
2017-Oct-07 21:30N 52°06' E 004°16'0 0.0
2017-Oct-07 20:57N 52°06' E 004°16'0 0.0
2017-Oct-07 20:27N 52°06' E 004°16'0 0.0
2017-Oct-07 20:00N 52°06' E 004°16'0 0.0
2017-Oct-07 19:30N 52°06' E 004°16'0 0.0
2017-Oct-07 19:00N 52°06' E 004°16'0 0.0
2017-Oct-07 18:30N 52°06' E 004°16'0 0.0
2017-Oct-07 18:00N 52°06' E 004°16'0 0.0
2017-Oct-07 17:27N 52°06' E 004°16'0 0.0
2017-Oct-07 17:00N 52°06' E 004°16'0 0.0
2017-Oct-07 16:30N 52°06' E 004°16'0 0.0
2017-Oct-07 16:00N 52°06' E 004°16'0 0.0
2017-Oct-07 15:30N 52°06' E 004°16'0 0.0
2017-Oct-07 15:00N 52°06' E 004°16'0 0.0
2017-Oct-07 14:24N 52°06' E 004°16'0 0.0
2017-Oct-07 14:00N 52°06' E 004°16'0 0.0
2017-Oct-07 13:27N 52°06' E 004°16'0 0.0
2017-Oct-07 12:57N 52°06' E 004°16'0 0.0
2017-Oct-07 12:27N 52°06' E 004°16'0 0.0
2017-Oct-07 11:57N 52°06' E 004°16'0 0.0
2017-Oct-07 11:24N 52°06' E 004°16'0 0.0
2017-Oct-07 11:00N 52°06' E 004°16'0 0.0
2017-Oct-07 10:27N 52°06' E 004°16'0 0.0
2017-Oct-07 09:57N 52°06' E 004°16'0 0.0
2017-Oct-07 09:30N 52°06' E 004°16'0 0.0
2017-Oct-07 09:00N 52°06' E 004°16'0 0.0
2017-Oct-07 08:27N 52°06' E 004°16'0 0.0
2017-Oct-07 07:57N 52°06' E 004°16'0 0.0
2017-Oct-07 07:30N 52°06' E 004°16'0 0.0
2017-Oct-07 06:57N 52°06' E 004°16'0 0.0
2017-Oct-07 06:27N 52°06' E 004°16'  
Track history (hours):
 
Tides and Currents Weather Stations Pressure Air Temp Water Temp Dewpoint Dewpoint Depression Visibility Wind Speed Wind Dir Waves Ship Positions

Oceanographic research ship Isis (Netherlands)

Detailed information on ship capabilities available from University of Delaware's Ocean Information Center.

Last reported at 2017-Oct-17 05:59 UTC. Time now 2017-Oct-17 15:04 UTC.
Position N 53°55' E 008°14'.

Length 28 m; beam 8 m.

Type: Other ship. MMSI: 244767000.

Date/timePositionNaut miles runAvg speedWind from/ knotsBaromVisibWave heightAir tempDewpointWater temp
2017-Oct-17 05:59N 53°55' E 008°14'15 6.0
2017-Oct-17 03:33N 54°09' E 008°03'24 5.8
2017-Oct-16 23:31N 54°32' E 007°59'0 5.8
2017-Oct-16 23:27N 54°32' E 007°60'42 7.2
2017-Oct-16 17:32N 55°14' E 008°16'010.1
2017-Oct-16 17:30N 55°14' E 008°16'5 9.9
2017-Oct-16 17:00N 55°19' E 008°17'4 8.2
2017-Oct-16 16:30N 55°23' E 008°13'4 8.5
2017-Oct-16 16:00N 55°26' E 008°09'4 8.2
2017-Oct-16 15:30N 55°29' E 008°05'1 1.7
2017-Oct-16 15:00N 55°30' E 008°04'1 2.0
2017-Oct-16 14:30N 55°29' E 008°05'5 5.2
2017-Oct-16 13:30N 55°26' E 008°12'4 7.8
2017-Oct-16 13:00N 55°23' E 008°17'2 3.4
2017-Oct-16 12:30N 55°22' E 008°18'3 5.4
2017-Oct-16 12:00N 55°19' E 008°19'2 3.6
2017-Oct-16 11:26N 55°17' E 008°19'0 0.3
2017-Oct-16 10:49N 55°17' E 008°19'1 3.1
2017-Oct-16 10:24N 55°16' E 008°19'  
2017-Oct-10 09:15N 53°30' E 005°17'1 3.0
2017-Oct-10 09:00N 53°29' E 005°15'3 5.7
2017-Oct-10 08:28N 53°27' E 005°13'3 5.6
2017-Oct-10 08:00N 53°25' E 005°10'2 3.4
2017-Oct-10 07:31N 53°24' E 005°07'2 3.3
2017-Oct-10 07:00N 53°26' E 005°08'1 1.7
2017-Oct-10 06:30N 53°26' E 005°07'1 1.6
2017-Oct-10 06:00N 53°26' E 005°06'1 2.8
2017-Oct-10 05:30N 53°25' E 005°04'2 3.1
2017-Oct-10 05:00N 53°25' E 005°01'2 3.4
2017-Oct-10 04:30N 53°24' E 004°59'2 3.1
2017-Oct-10 04:01N 53°23' E 004°57'2 3.5
2017-Oct-10 03:30N 53°21' E 004°56'2 3.3
2017-Oct-10 03:00N 53°20' E 004°54'2 3.3
2017-Oct-10 02:30N 53°19' E 004°52'2 3.3
2017-Oct-10 01:47N 53°17' E 004°51'13 3.4
2017-Oct-09 22:01N 53°06' E 004°39'0 4.6
2017-Oct-09 21:56N 53°06' E 004°39'2 4.5
2017-Oct-09 21:28N 53°04' E 004°37'2 4.9
2017-Oct-09 20:59N 53°02' E 004°35'2 5.0
2017-Oct-09 20:29N 52°59' E 004°34'2 5.0
2017-Oct-09 20:00N 52°57' E 004°33'2 4.5
2017-Oct-09 19:30N 52°55' E 004°35'2 4.1
2017-Oct-09 19:01N 52°54' E 004°38'3 5.7
2017-Oct-09 18:30N 52°56' E 004°41'1 3.0
2017-Oct-09 18:00N 52°58' E 004°43'2 2.8
2017-Oct-09 17:28N 52°58' E 004°45'1 3.2
2017-Oct-09 17:00N 52°58' E 004°47'1 1.2
2017-Oct-09 16:30N 52°58' E 004°47'1 1.3
2017-Oct-09 16:01N 52°58' E 004°47'4 8.0
2017-Oct-09 15:30N 52°57' E 004°41'4 8.7
2017-Oct-09 15:00N 52°52' E 004°38'5 9.6
2017-Oct-09 14:30N 52°48' E 004°37'5 9.5
2017-Oct-09 14:00N 52°43' E 004°36'4 9.0
2017-Oct-09 13:31N 52°39' E 004°35'4 8.9
2017-Oct-09 13:00N 52°34' E 004°33'8 8.0
2017-Oct-09 12:00N 52°27' E 004°29'3 5.2
2017-Oct-09 11:30N 52°24' E 004°28'4 8.7
2017-Oct-09 11:00N 52°20' E 004°25'4 8.8
2017-Oct-09 10:31N 52°16' E 004°23'3 6.4
2017-Oct-09 10:00N 52°13' E 004°21'3 5.8
2017-Oct-09 09:30N 52°10' E 004°19'3 6.7
2017-Oct-09 09:00N 52°07' E 004°17'2 3.3
2017-Oct-09 08:30N 52°06' E 004°16'0 0.6
2017-Oct-09 08:00N 52°06' E 004°16'0 0.0
2017-Oct-09 07:27N 52°06' E 004°16'0 0.0
2017-Oct-09 07:00N 52°06' E 004°16'0 0.0
2017-Oct-09 06:27N 52°06' E 004°16'0 0.0
2017-Oct-09 06:00N 52°06' E 004°16'0 0.0
2017-Oct-09 05:27N 52°06' E 004°16'0 0.0
2017-Oct-09 04:57N 52°06' E 004°16'0 0.0
2017-Oct-09 04:27N 52°06' E 004°16'0 0.0
2017-Oct-09 03:57N 52°06' E 004°16'0 0.0
2017-Oct-09 03:30N 52°06' E 004°16'0 0.0
2017-Oct-09 03:00N 52°06' E 004°16'0 0.0
2017-Oct-09 02:30N 52°06' E 004°16'0 0.0
2017-Oct-09 02:00N 52°06' E 004°16'0 0.0
2017-Oct-09 01:30N 52°06' E 004°16'0 0.0
2017-Oct-09 01:00N 52°06' E 004°16'0 0.0
2017-Oct-09 00:30N 52°06' E 004°16'0 0.0
2017-Oct-09 00:00N 52°06' E 004°16'0 0.0
2017-Oct-08 23:30N 52°06' E 004°16'0 0.0
2017-Oct-08 22:57N 52°06' E 004°16'0 0.0
2017-Oct-08 22:27N 52°06' E 004°16'0 0.0
2017-Oct-08 21:54N 52°06' E 004°16'0 0.0
2017-Oct-08 21:27N 52°06' E 004°16'0 0.0
2017-Oct-08 21:00N 52°06' E 004°16'0 0.0
2017-Oct-08 20:30N 52°06' E 004°16'0 0.0
2017-Oct-08 19:57N 52°06' E 004°16'0 0.0
2017-Oct-08 19:21N 52°06' E 004°16'0 0.0
2017-Oct-08 19:00N 52°06' E 004°16'0 0.0
2017-Oct-08 18:30N 52°06' E 004°16'0 0.0
2017-Oct-08 18:00N 52°06' E 004°16'0 0.0
2017-Oct-08 17:30N 52°06' E 004°16'0 0.0
2017-Oct-08 17:00N 52°06' E 004°16'0 0.0
2017-Oct-08 16:06N 52°06' E 004°16'0 0.0
2017-Oct-08 16:00N 52°06' E 004°16'0 0.0
2017-Oct-08 15:30N 52°06' E 004°16'0 0.0
2017-Oct-08 14:57N 52°06' E 004°16'0 0.0
2017-Oct-08 14:30N 52°06' E 004°16'0 0.0
2017-Oct-08 13:57N 52°06' E 004°16'0 0.0
2017-Oct-08 13:30N 52°06' E 004°16'0 0.0
2017-Oct-08 13:00N 52°06' E 004°16'0 0.0
2017-Oct-08 12:27N 52°06' E 004°16'0 0.0
2017-Oct-08 12:00N 52°06' E 004°16'0 0.0
2017-Oct-08 11:30N 52°06' E 004°16'0 0.0
2017-Oct-08 10:45N 52°06' E 004°16'0 0.0
2017-Oct-08 10:27N 52°06' E 004°16'0 0.0
2017-Oct-08 09:54N 52°06' E 004°16'0 0.0
2017-Oct-08 09:24N 52°06' E 004°16'0 0.0
2017-Oct-08 08:51N 52°06' E 004°16'0 0.0
2017-Oct-08 08:30N 52°06' E 004°16'0 0.0
2017-Oct-08 08:00N 52°06' E 004°16'0 0.0
2017-Oct-08 07:30N 52°06' E 004°16'0 0.0
2017-Oct-08 06:57N 52°06' E 004°16'0 0.0
2017-Oct-08 06:27N 52°06' E 004°16'0 0.0
2017-Oct-08 06:00N 52°06' E 004°16'0 0.0
2017-Oct-08 05:27N 52°06' E 004°16'0 0.0
2017-Oct-08 04:57N 52°06' E 004°16'0 0.0
2017-Oct-08 04:30N 52°06' E 004°16'0 0.0
2017-Oct-08 04:00N 52°06' E 004°16'0 0.0
2017-Oct-08 03:30N 52°06' E 004°16'0 0.0
2017-Oct-08 03:00N 52°06' E 004°16'0 0.0
2017-Oct-08 02:24N 52°06' E 004°16'0 0.0
2017-Oct-08 02:00N 52°06' E 004°16'0 0.0
2017-Oct-08 01:30N 52°06' E 004°16'0 0.0
2017-Oct-08 01:00N 52°06' E 004°16'0 0.0
2017-Oct-08 00:30N 52°06' E 004°16'0 0.0
2017-Oct-08 00:00N 52°06' E 004°16'0 0.0
2017-Oct-07 23:30N 52°06' E 004°16'0 0.0
2017-Oct-07 23:00N 52°06' E 004°16'0 0.0
2017-Oct-07 22:27N 52°06' E 004°16'0 0.0
2017-Oct-07 21:57N 52°06' E 004°16'0 0.0
2017-Oct-07 21:30N 52°06' E 004°16'0 0.0
2017-Oct-07 20:57N 52°06' E 004°16'0 0.0
2017-Oct-07 20:27N 52°06' E 004°16'0 0.0
2017-Oct-07 20:00N 52°06' E 004°16'0 0.0
2017-Oct-07 19:30N 52°06' E 004°16'0 0.0
2017-Oct-07 19:00N 52°06' E 004°16'0 0.0
2017-Oct-07 18:30N 52°06' E 004°16'0 0.0
2017-Oct-07 18:00N 52°06' E 004°16'0 0.0
2017-Oct-07 17:27N 52°06' E 004°16'0 0.0
2017-Oct-07 17:00N 52°06' E 004°16'0 0.0
2017-Oct-07 16:30N 52°06' E 004°16'0 0.0
2017-Oct-07 16:00N 52°06' E 004°16'0 0.0
2017-Oct-07 15:30N 52°06' E 004°16'0 0.0
2017-Oct-07 15:00N 52°06' E 004°16'0 0.0
2017-Oct-07 14:24N 52°06' E 004°16'0 0.0
2017-Oct-07 14:00N 52°06' E 004°16'0 0.0
2017-Oct-07 13:27N 52°06' E 004°16'0 0.0
2017-Oct-07 12:57N 52°06' E 004°16'0 0.0
2017-Oct-07 12:27N 52°06' E 004°16'0 0.0
2017-Oct-07 11:57N 52°06' E 004°16'0 0.0
2017-Oct-07 11:24N 52°06' E 004°16'0 0.0
2017-Oct-07 11:00N 52°06' E 004°16'0 0.0
2017-Oct-07 10:27N 52°06' E 004°16'0 0.0
2017-Oct-07 09:57N 52°06' E 004°16'0 0.0
2017-Oct-07 09:30N 52°06' E 004°16'0 0.0
2017-Oct-07 09:00N 52°06' E 004°16'0 0.0
2017-Oct-07 08:27N 52°06' E 004°16'0 0.0
2017-Oct-07 07:57N 52°06' E 004°16'0 0.0
2017-Oct-07 07:30N 52°06' E 004°16'0 0.0
2017-Oct-07 06:57N 52°06' E 004°16'0 0.0
2017-Oct-07 06:27N 52°06' E 004°16'  

Dump ship's entire track history